sensor_id;sensor_type;location;lat;lon;timestamp;P1;durP1;ratioP1;P2;durP2;ratioP2
67503;SDS011;54351;49.108;1.502;2022-10-17T03:31:28;460.30;;;422.77;;
67503;SDS011;54351;49.108;1.502;2022-10-17T03:33:54;485.30;;;445.45;;
67503;SDS011;54351;49.108;1.502;2022-10-17T03:36:21;529.72;;;484.70;;
67503;SDS011;54351;49.108;1.502;2022-10-17T03:38:47;414.60;;;381.70;;
67503;SDS011;54351;49.108;1.502;2022-10-17T03:41:13;448.20;;;411.63;;
67503;SDS011;54351;49.108;1.502;2022-10-17T03:43:39;491.88;;;451.25;;
67503;SDS011;54351;49.108;1.502;2022-10-17T03:46:05;218.27;;;202.88;;
67503;SDS011;54351;49.108;1.502;2022-10-17T03:48:32;318.63;;;296.90;;
67503;SDS011;54351;49.108;1.502;2022-10-17T03:50:59;267.65;;;249.75;;
67503;SDS011;54351;49.108;1.502;2022-10-17T03:53:25;283.05;;;264.23;;
67503;SDS011;54351;49.108;1.502;2022-10-17T03:55:51;293.10;;;273.27;;
67503;SDS011;54351;49.108;1.502;2022-10-17T03:58:17;301.42;;;281.90;;
67503;SDS011;54351;49.108;1.502;2022-10-17T04:00:43;242.13;;;227.20;;
67503;SDS011;54351;49.108;1.502;2022-10-17T04:03:09;183.32;;;170.85;;
67503;SDS011;54351;49.108;1.502;2022-10-17T04:05:36;201.77;;;188.65;;
67503;SDS011;54351;49.108;1.502;2022-10-17T04:08:02;212.48;;;199.20;;
67503;SDS011;54351;49.108;1.502;2022-10-17T04:10:28;294.92;;;275.73;;
67503;SDS011;54351;49.108;1.502;2022-10-17T04:12:55;332.30;;;310.40;;
67503;SDS011;54351;49.108;1.502;2022-10-17T04:15:21;342.75;;;318.55;;
67503;SDS011;54351;49.108;1.502;2022-10-17T04:17:47;343.90;;;319.95;;
67503;SDS011;54351;49.108;1.502;2022-10-17T04:20:13;337.17;;;314.50;;
67503;SDS011;54351;49.108;1.502;2022-10-17T04:22:39;335.35;;;312.55;;
67503;SDS011;54351;49.108;1.502;2022-10-17T04:25:05;339.15;;;316.27;;
67503;SDS011;54351;49.108;1.502;2022-10-17T04:27:31;333.58;;;310.88;;
67503;SDS011;54351;49.108;1.502;2022-10-17T04:29:59;279.60;;;261.98;;
67503;SDS011;54351;49.108;1.502;2022-10-17T04:32:25;236.73;;;221.43;;
67503;SDS011;54351;49.108;1.502;2022-10-17T04:34:51;236.32;;;221.40;;
67503;SDS011;54351;49.108;1.502;2022-10-17T04:37:17;191.00;;;178.55;;
67503;SDS011;54351;49.108;1.502;2022-10-17T04:39:51;190.48;;;178.40;;
67503;SDS011;54351;49.108;1.502;2022-10-17T04:42:18;192.68;;;180.65;;
67503;SDS011;54351;49.108;1.502;2022-10-17T04:44:44;211.30;;;198.48;;
67503;SDS011;54351;49.108;1.502;2022-10-17T04:47:10;191.57;;;179.65;;
67503;SDS011;54351;49.108;1.502;2022-10-17T04:49:36;204.55;;;191.80;;
67503;SDS011;54351;49.108;1.502;2022-10-17T04:52:02;204.95;;;191.70;;
67503;SDS011;54351;49.108;1.502;2022-10-17T04:54:29;188.70;;;176.85;;
67503;SDS011;54351;49.108;1.502;2022-10-17T04:56:55;191.60;;;179.57;;
67503;SDS011;54351;49.108;1.502;2022-10-17T04:59:21;199.38;;;186.85;;
67503;SDS011;54351;49.108;1.502;2022-10-17T05:01:47;194.38;;;181.65;;
67503;SDS011;54351;49.108;1.502;2022-10-17T05:04:13;201.60;;;188.65;;
67503;SDS011;54351;49.108;1.502;2022-10-17T05:06:40;205.70;;;191.93;;
67503;SDS011;54351;49.108;1.502;2022-10-17T05:09:06;212.30;;;198.30;;
67503;SDS011;54351;49.108;1.502;2022-10-17T05:11:32;229.18;;;214.73;;
67503;SDS011;54351;49.108;1.502;2022-10-17T05:14:01;278.38;;;260.55;;
67503;SDS011;54351;49.108;1.502;2022-10-17T05:16:28;326.00;;;303.15;;
67503;SDS011;54351;49.108;1.502;2022-10-17T05:18:55;351.45;;;326.77;;
67503;SDS011;54351;49.108;1.502;2022-10-17T05:21:22;404.58;;;374.05;;
67503;SDS011;54351;49.108;1.502;2022-10-17T05:23:48;450.85;;;413.70;;
67503;SDS011;54351;49.108;1.502;2022-10-17T05:26:15;448.77;;;413.10;;
67503;SDS011;54351;49.108;1.502;2022-10-17T05:28:41;468.88;;;431.23;;
67503;SDS011;54351;49.108;1.502;2022-10-17T05:31:08;413.80;;;381.65;;
67503;SDS011;54351;49.108;1.502;2022-10-17T05:33:34;364.25;;;338.02;;
67503;SDS011;54351;49.108;1.502;2022-10-17T05:36:01;387.67;;;357.80;;
67503;SDS011;54351;49.108;1.502;2022-10-17T05:38:27;390.45;;;360.67;;
67503;SDS011;54351;49.108;1.502;2022-10-17T05:40:57;458.27;;;421.73;;
67503;SDS011;54351;49.108;1.502;2022-10-17T05:43:23;465.60;;;426.90;;
67503;SDS011;54351;49.108;1.502;2022-10-17T05:45:50;444.85;;;408.13;;
67503;SDS011;54351;49.108;1.502;2022-10-17T05:48:16;446.80;;;410.40;;
67503;SDS011;54351;49.108;1.502;2022-10-17T05:50:42;535.55;;;488.88;;
67503;SDS011;54351;49.108;1.502;2022-10-17T05:53:08;509.52;;;467.58;;
67503;SDS011;54351;49.108;1.502;2022-10-17T05:55:34;500.27;;;457.50;;
67503;SDS011;54351;49.108;1.502;2022-10-17T05:58:00;488.08;;;447.13;;
67503;SDS011;54351;49.108;1.502;2022-10-17T06:00:38;459.42;;;420.80;;
67503;SDS011;54351;49.108;1.502;2022-10-17T06:03:07;471.88;;;433.48;;
67503;SDS011;54351;49.108;1.502;2022-10-17T06:05:34;412.15;;;379.92;;
67503;SDS011;54351;49.108;1.502;2022-10-17T06:08:00;374.85;;;346.88;;
67503;SDS011;54351;49.108;1.502;2022-10-17T06:10:26;342.60;;;316.77;;
67503;SDS011;54351;49.108;1.502;2022-10-17T06:12:52;378.90;;;350.45;;
67503;SDS011;54351;49.108;1.502;2022-10-17T06:15:18;276.20;;;257.88;;
67503;SDS011;54351;49.108;1.502;2022-10-17T06:17:44;275.80;;;257.83;;
67503;SDS011;54351;49.108;1.502;2022-10-17T06:20:10;238.80;;;222.75;;
67503;SDS011;54351;49.108;1.502;2022-10-17T06:22:36;194.18;;;180.95;;
67503;SDS011;54351;49.108;1.502;2022-10-17T06:25:05;206.73;;;192.10;;
67503;SDS011;54351;49.108;1.502;2022-10-17T06:27:34;173.63;;;160.20;;
67503;SDS011;54351;49.108;1.502;2022-10-17T06:30:08;209.68;;;196.10;;
67503;SDS011;54351;49.108;1.502;2022-10-17T06:43:26;189.02;;;175.98;;
67503;SDS011;54351;49.108;1.502;2022-10-17T06:45:54;178.82;;;166.18;;
67503;SDS011;54351;49.108;1.502;2022-10-17T06:48:21;189.90;;;173.77;;
67503;SDS011;54351;49.108;1.502;2022-10-17T06:50:47;184.20;;;170.77;;
67503;SDS011;54351;49.108;1.502;2022-10-17T06:53:15;192.23;;;178.93;;
67503;SDS011;54351;49.108;1.502;2022-10-17T06:55:41;176.98;;;163.05;;
67503;SDS011;54351;49.108;1.502;2022-10-17T06:58:07;181.02;;;168.40;;
67503;SDS011;54351;49.108;1.502;2022-10-17T07:00:33;174.55;;;160.95;;
67503;SDS011;54351;49.108;1.502;2022-10-17T07:03:02;185.80;;;171.82;;
67503;SDS011;54351;49.108;1.502;2022-10-17T07:05:38;180.45;;;167.82;;
67503;SDS011;54351;49.108;1.502;2022-10-17T07:08:04;181.88;;;168.77;;
67503;SDS011;54351;49.108;1.502;2022-10-17T07:10:35;183.65;;;166.45;;
67503;SDS011;54351;49.108;1.502;2022-10-17T07:13:03;180.00;;;165.45;;
67503;SDS011;54351;49.108;1.502;2022-10-17T07:15:32;215.88;;;196.40;;
67503;SDS011;54351;49.108;1.502;2022-10-17T07:18:00;216.88;;;200.13;;
67503;SDS011;54351;49.108;1.502;2022-10-17T07:20:26;179.70;;;166.50;;
67503;SDS011;54351;49.108;1.502;2022-10-17T07:22:52;190.73;;;174.88;;
67503;SDS011;54351;49.108;1.502;2022-10-17T07:25:19;216.80;;;201.80;;
67503;SDS011;54351;49.108;1.502;2022-10-17T07:27:45;233.55;;;213.15;;
67503;SDS011;54351;49.108;1.502;2022-10-17T07:30:13;188.98;;;173.98;;
67503;SDS011;54351;49.108;1.502;2022-10-17T07:32:39;209.15;;;192.75;;
67503;SDS011;54351;49.108;1.502;2022-10-17T07:35:05;232.02;;;215.80;;
67503;SDS011;54351;49.108;1.502;2022-10-17T07:37:32;248.73;;;231.07;;
67503;SDS011;54351;49.108;1.502;2022-10-17T07:39:58;232.27;;;216.10;;
67503;SDS011;54351;49.108;1.502;2022-10-17T07:42:24;274.63;;;253.23;;
67503;SDS011;54351;49.108;1.502;2022-10-17T07:44:51;283.80;;;262.95;;
67503;SDS011;54351;49.108;1.502;2022-10-17T07:47:17;229.70;;;213.18;;
67503;SDS011;54351;49.108;1.502;2022-10-17T07:49:43;263.50;;;244.27;;
67503;SDS011;54351;49.108;1.502;2022-10-17T07:52:10;232.90;;;216.85;;
67503;SDS011;54351;49.108;1.502;2022-10-17T07:54:36;236.65;;;218.20;;
67503;SDS011;54351;49.108;1.502;2022-10-17T07:57:03;238.60;;;220.95;;
67503;SDS011;54351;49.108;1.502;2022-10-17T07:59:29;170.85;;;158.82;;
67503;SDS011;54351;49.108;1.502;2022-10-17T08:01:55;162.65;;;150.63;;
67503;SDS011;54351;49.108;1.502;2022-10-17T08:04:21;161.63;;;150.25;;
67503;SDS011;54351;49.108;1.502;2022-10-17T08:06:48;164.95;;;152.20;;
67503;SDS011;54351;49.108;1.502;2022-10-17T08:09:14;168.60;;;156.50;;
67503;SDS011;54351;49.108;1.502;2022-10-17T08:11:40;189.13;;;174.73;;
67503;SDS011;54351;49.108;1.502;2022-10-17T08:14:08;167.00;;;154.55;;
67503;SDS011;54351;49.108;1.502;2022-10-17T08:16:34;161.93;;;150.43;;
67503;SDS011;54351;49.108;1.502;2022-10-17T08:19:01;172.95;;;160.20;;
67503;SDS011;54351;49.108;1.502;2022-10-17T08:21:27;174.70;;;162.48;;
67503;SDS011;54351;49.108;1.502;2022-10-17T08:23:53;172.10;;;159.10;;
67503;SDS011;54351;49.108;1.502;2022-10-17T08:26:22;193.90;;;180.68;;
67503;SDS011;54351;49.108;1.502;2022-10-17T08:28:52;191.77;;;178.45;;
67503;SDS011;54351;49.108;1.502;2022-10-17T09:25:52;153.10;;;141.38;;
67503;SDS011;54351;49.108;1.502;2022-10-17T09:28:20;204.82;;;190.02;;
67503;SDS011;54351;49.108;1.502;2022-10-17T09:31:11;206.13;;;191.63;;
67503;SDS011;54351;49.108;1.502;2022-10-17T09:33:37;198.70;;;184.57;;
67503;SDS011;54351;49.108;1.502;2022-10-17T09:36:05;245.32;;;226.93;;
67503;SDS011;54351;49.108;1.502;2022-10-17T09:38:38;328.42;;;301.83;;
67503;SDS011;54351;49.108;1.502;2022-10-17T09:41:06;294.02;;;271.13;;
67503;SDS011;54351;49.108;1.502;2022-10-17T09:43:37;322.88;;;296.73;;
67503;SDS011;54351;49.108;1.502;2022-10-17T09:46:05;408.83;;;374.20;;
67503;SDS011;54351;49.108;1.502;2022-10-17T09:51:01;440.40;;;401.95;;
67503;SDS011;54351;49.108;1.502;2022-10-17T09:53:32;414.70;;;378.88;;
67503;SDS011;54351;49.108;1.502;2022-10-17T09:56:00;414.33;;;377.40;;
67503;SDS011;54351;49.108;1.502;2022-10-17T09:58:40;398.27;;;363.58;;
67503;SDS011;54351;49.108;1.502;2022-10-17T10:01:17;430.27;;;391.90;;
67503;SDS011;54351;49.108;1.502;2022-10-17T10:03:43;381.05;;;348.33;;
67503;SDS011;54351;49.108;1.502;2022-10-17T10:06:17;410.30;;;374.73;;
67503;SDS011;54351;49.108;1.502;2022-10-17T10:08:56;389.38;;;356.05;;
67503;SDS011;54351;49.108;1.502;2022-10-17T10:14:11;419.10;;;382.52;;
67503;SDS011;54351;49.108;1.502;2022-10-17T10:16:41;415.58;;;379.48;;
67503;SDS011;54351;49.108;1.502;2022-10-17T10:19:25;443.45;;;403.75;;
67503;SDS011;54351;49.108;1.502;2022-10-17T10:21:54;419.75;;;383.27;;
67503;SDS011;54351;49.108;1.502;2022-10-17T10:24:21;401.40;;;366.83;;
67503;SDS011;54351;49.108;1.502;2022-10-17T10:26:47;388.30;;;355.65;;
67503;SDS011;54351;49.108;1.502;2022-10-17T10:29:26;359.65;;;328.85;;
67503;SDS011;54351;49.108;1.502;2022-10-17T10:35:39;401.92;;;367.50;;
67503;SDS011;54351;49.108;1.502;2022-10-17T10:37:48;370.08;;;339.13;;
67503;SDS011;54351;49.108;1.502;2022-10-17T10:40:18;357.45;;;328.30;;
67503;SDS011;54351;49.108;1.502;2022-10-17T10:42:47;308.77;;;283.98;;
67503;SDS011;54351;49.108;1.502;2022-10-17T10:45:56;295.88;;;272.73;;
67503;SDS011;54351;49.108;1.502;2022-10-17T10:48:20;267.45;;;246.30;;
67503;SDS011;54351;49.108;1.502;2022-10-17T10:50:51;255.55;;;236.70;;
67503;SDS011;54351;49.108;1.502;2022-10-17T10:53:28;303.80;;;279.60;;
67503;SDS011;54351;49.108;1.502;2022-10-17T11:00:53;319.80;;;294.08;;
67503;SDS011;54351;49.108;1.502;2022-10-17T11:03:25;296.48;;;272.95;;
67503;SDS011;54351;49.108;1.502;2022-10-17T11:05:54;258.88;;;238.75;;
67503;SDS011;54351;49.108;1.502;2022-10-17T11:11:05;316.38;;;291.95;;
67503;SDS011;54351;49.108;1.502;2022-10-17T11:13:38;559.03;;;510.30;;
67503;SDS011;54351;49.108;1.502;2022-10-17T11:23:58;521.63;;;476.33;;
67503;SDS011;54351;49.108;1.502;2022-10-17T11:26:27;538.20;;;491.40;;
67503;SDS011;54351;49.108;1.502;2022-10-17T11:28:58;445.05;;;406.60;;
67503;SDS011;54351;49.108;1.502;2022-10-17T11:31:28;460.75;;;420.83;;
67503;SDS011;54351;49.108;1.502;2022-10-17T11:34:14;556.03;;;507.58;;
67503;SDS011;54351;49.108;1.502;2022-10-17T11:36:44;517.45;;;473.17;;
67503;SDS011;54351;49.108;1.502;2022-10-17T11:39:15;489.52;;;448.20;;
67503;SDS011;54351;49.108;1.502;2022-10-17T11:41:55;439.10;;;406.08;;
67503;SDS011;54351;49.108;1.502;2022-10-17T11:46:55;315.02;;;287.60;;
67503;SDS011;54351;49.108;1.502;2022-10-17T11:49:26;461.43;;;424.27;;
67503;SDS011;54351;49.108;1.502;2022-10-17T11:54:26;479.98;;;439.98;;
67503;SDS011;54351;49.108;1.502;2022-10-17T12:02:51;373.05;;;339.55;;
67503;SDS011;54351;49.108;1.502;2022-10-17T12:05:27;484.88;;;441.85;;
67503;SDS011;54351;49.108;1.502;2022-10-17T12:21:25;445.60;;;408.08;;
67503;SDS011;54351;49.108;1.502;2022-10-17T12:23:52;455.30;;;414.17;;
67503;SDS011;54351;49.108;1.502;2022-10-17T12:26:25;485.15;;;441.88;;
67503;SDS011;54351;49.108;1.502;2022-10-17T12:28:54;473.60;;;429.85;;
67503;SDS011;54351;49.108;1.502;2022-10-17T12:38:30;451.70;;;411.27;;
67503;SDS011;54351;49.108;1.502;2022-10-17T12:53:19;543.55;;;494.02;;
67503;SDS011;54351;49.108;1.502;2022-10-17T13:02:24;469.33;;;429.45;;
67503;SDS011;54351;49.108;1.502;2022-10-17T13:08:13;383.13;;;350.58;;
67503;SDS011;54351;49.108;1.502;2022-10-17T13:17:23;486.55;;;445.77;;
67503;SDS011;54351;49.108;1.502;2022-10-17T13:22:55;502.10;;;460.90;;
67503;SDS011;54351;49.108;1.502;2022-10-17T13:25:22;465.25;;;427.02;;
67503;SDS011;54351;49.108;1.502;2022-10-17T13:34:40;461.15;;;423.70;;
67503;SDS011;54351;49.108;1.502;2022-10-17T13:37:06;408.13;;;375.08;;
67503;SDS011;54351;49.108;1.502;2022-10-17T13:39:37;425.15;;;389.98;;
67503;SDS011;54351;49.108;1.502;2022-10-17T13:42:03;482.15;;;444.05;;
67503;SDS011;54351;49.108;1.502;2022-10-17T13:44:33;402.90;;;369.00;;
67503;SDS011;54351;49.108;1.502;2022-10-17T13:46:59;429.70;;;394.65;;
67503;SDS011;54351;49.108;1.502;2022-10-17T13:49:31;366.38;;;337.38;;
67503;SDS011;54351;49.108;1.502;2022-10-17T13:52:01;420.85;;;386.13;;
67503;SDS011;54351;49.108;1.502;2022-10-17T13:56:55;473.58;;;435.45;;
67503;SDS011;54351;49.108;1.502;2022-10-17T13:59:22;364.25;;;329.70;;
67503;SDS011;54351;49.108;1.502;2022-10-17T14:01:48;395.42;;;360.70;;
67503;SDS011;54351;49.108;1.502;2022-10-17T14:04:16;405.50;;;368.38;;
67503;SDS011;54351;49.108;1.502;2022-10-17T14:06:42;385.05;;;350.45;;
67503;SDS011;54351;49.108;1.502;2022-10-17T14:09:20;402.23;;;365.20;;
67503;SDS011;54351;49.108;1.502;2022-10-17T14:11:55;484.33;;;439.08;;
67503;SDS011;54351;49.108;1.502;2022-10-17T14:14:23;536.78;;;488.08;;
67503;SDS011;54351;49.108;1.502;2022-10-17T14:16:50;515.55;;;468.67;;
67503;SDS011;54351;49.108;1.502;2022-10-17T14:19:32;572.13;;;524.83;;
67503;SDS011;54351;49.108;1.502;2022-10-17T14:24:44;573.15;;;523.70;;
67503;SDS011;54351;49.108;1.502;2022-10-17T14:27:24;593.33;;;545.70;;
67503;SDS011;54351;49.108;1.502;2022-10-17T14:29:51;516.38;;;471.48;;
67503;SDS011;54351;49.108;1.502;2022-10-17T14:32:18;628.63;;;576.42;;
67503;SDS011;54351;49.108;1.502;2022-10-17T14:34:45;493.17;;;449.23;;
67503;SDS011;54351;49.108;1.502;2022-10-17T14:39:49;390.23;;;354.88;;
67503;SDS011;54351;49.108;1.502;2022-10-17T14:42:17;472.00;;;431.02;;
67503;SDS011;54351;49.108;1.502;2022-10-17T14:44:46;482.38;;;440.65;;
67503;SDS011;54351;49.108;1.502;2022-10-17T14:47:18;540.42;;;496.13;;
67503;SDS011;54351;49.108;1.502;2022-10-17T14:49:47;481.40;;;441.05;;
67503;SDS011;54351;49.108;1.502;2022-10-17T14:54:40;469.83;;;427.17;;
67503;SDS011;54351;49.108;1.502;2022-10-17T14:59:54;479.05;;;434.75;;
67503;SDS011;54351;49.108;1.502;2022-10-17T15:02:21;670.00;;;619.65;;
67503;SDS011;54351;49.108;1.502;2022-10-17T15:04:47;465.15;;;422.33;;
67503;SDS011;54351;49.108;1.502;2022-10-17T15:07:14;518.05;;;474.02;;
67503;SDS011;54351;49.108;1.502;2022-10-17T15:09:41;501.00;;;460.25;;
67503;SDS011;54351;49.108;1.502;2022-10-17T15:12:11;487.40;;;448.15;;
67503;SDS011;54351;49.108;1.502;2022-10-17T15:14:38;484.50;;;444.38;;
67503;SDS011;54351;49.108;1.502;2022-10-17T15:17:08;438.00;;;402.83;;
67503;SDS011;54351;49.108;1.502;2022-10-17T15:19:35;471.08;;;432.63;;
67503;SDS011;54351;49.108;1.502;2022-10-17T15:22:01;446.88;;;411.45;;
67503;SDS011;54351;49.108;1.502;2022-10-17T15:24:27;422.52;;;386.83;;
67503;SDS011;54351;49.108;1.502;2022-10-17T15:26:53;484.73;;;444.33;;
67503;SDS011;54351;49.108;1.502;2022-10-17T15:29:20;419.52;;;380.48;;
67503;SDS011;54351;49.108;1.502;2022-10-17T15:31:46;480.73;;;441.13;;
67503;SDS011;54351;49.108;1.502;2022-10-17T15:34:12;459.60;;;419.77;;
67503;SDS011;54351;49.108;1.502;2022-10-17T15:36:39;507.45;;;467.70;;
67503;SDS011;54351;49.108;1.502;2022-10-17T15:39:05;599.15;;;555.75;;
67503;SDS011;54351;49.108;1.502;2022-10-17T15:41:31;588.80;;;543.90;;
67503;SDS011;54351;49.108;1.502;2022-10-17T15:43:58;556.38;;;514.42;;
67503;SDS011;54351;49.108;1.502;2022-10-17T15:46:25;501.02;;;461.95;;
67503;SDS011;54351;49.108;1.502;2022-10-17T15:48:55;526.38;;;483.70;;
67503;SDS011;54351;49.108;1.502;2022-10-17T15:51:21;517.28;;;476.48;;
67503;SDS011;54351;49.108;1.502;2022-10-17T15:53:47;462.92;;;421.83;;
67503;SDS011;54351;49.108;1.502;2022-10-17T15:56:30;500.83;;;459.63;;
67503;SDS011;54351;49.108;1.502;2022-10-17T15:58:59;546.00;;;501.48;;
67503;SDS011;54351;49.108;1.502;2022-10-17T16:01:27;466.55;;;423.88;;
67503;SDS011;54351;49.108;1.502;2022-10-17T16:03:54;403.63;;;369.17;;
67503;SDS011;54351;49.108;1.502;2022-10-17T16:06:20;410.13;;;374.33;;
67503;SDS011;54351;49.108;1.502;2022-10-17T16:08:50;375.30;;;341.60;;
67503;SDS011;54351;49.108;1.502;2022-10-17T16:11:30;408.90;;;373.95;;
67503;SDS011;54351;49.108;1.502;2022-10-17T16:13:59;379.00;;;345.85;;
67503;SDS011;54351;49.108;1.502;2022-10-17T16:16:25;431.30;;;396.55;;
67503;SDS011;54351;49.108;1.502;2022-10-17T16:18:56;445.08;;;409.27;;
67503;SDS011;54351;49.108;1.502;2022-10-17T16:21:25;442.17;;;406.45;;
67503;SDS011;54351;49.108;1.502;2022-10-17T16:23:53;419.13;;;386.20;;
67503;SDS011;54351;49.108;1.502;2022-10-17T16:26:20;407.88;;;374.80;;
67503;SDS011;54351;49.108;1.502;2022-10-17T16:28:48;451.80;;;416.10;;
67503;SDS011;54351;49.108;1.502;2022-10-17T16:31:24;455.65;;;419.10;;
67503;SDS011;54351;49.108;1.502;2022-10-17T16:33:53;438.58;;;402.88;;
67503;SDS011;54351;49.108;1.502;2022-10-17T16:36:20;427.58;;;392.27;;
67503;SDS011;54351;49.108;1.502;2022-10-17T16:38:49;425.58;;;391.88;;
67503;SDS011;54351;49.108;1.502;2022-10-17T16:43:46;445.20;;;409.02;;
67503;SDS011;54351;49.108;1.502;2022-10-17T16:46:15;463.27;;;425.52;;
67503;SDS011;54351;49.108;1.502;2022-10-17T16:48:45;422.85;;;388.02;;
67503;SDS011;54351;49.108;1.502;2022-10-17T16:51:18;413.65;;;378.33;;
67503;SDS011;54351;49.108;1.502;2022-10-17T16:53:45;436.25;;;400.23;;
67503;SDS011;54351;49.108;1.502;2022-10-17T16:56:14;438.60;;;402.63;;
67503;SDS011;54351;49.108;1.502;2022-10-17T16:58:44;451.15;;;414.25;;
67503;SDS011;54351;49.108;1.502;2022-10-17T17:01:12;441.83;;;405.05;;
67503;SDS011;54351;49.108;1.502;2022-10-17T17:03:41;422.70;;;388.77;;
67503;SDS011;54351;49.108;1.502;2022-10-17T17:06:11;442.77;;;406.20;;
67503;SDS011;54351;49.108;1.502;2022-10-17T17:08:53;436.77;;;399.02;;
67503;SDS011;54351;49.108;1.502;2022-10-17T17:11:24;493.27;;;449.70;;
67503;SDS011;54351;49.108;1.502;2022-10-17T17:20:07;443.85;;;407.02;;
67503;SDS011;54351;49.108;1.502;2022-10-17T17:22:33;415.45;;;381.27;;
67503;SDS011;54351;49.108;1.502;2022-10-17T17:25:15;402.50;;;368.67;;
67503;SDS011;54351;49.108;1.502;2022-10-17T17:36:30;388.67;;;355.60;;
67503;SDS011;54351;49.108;1.502;2022-10-17T17:39:00;394.73;;;359.50;;
67503;SDS011;54351;49.108;1.502;2022-10-17T17:41:30;394.73;;;360.92;;
67503;SDS011;54351;49.108;1.502;2022-10-17T17:53:10;332.55;;;302.23;;
67503;SDS011;54351;49.108;1.502;2022-10-17T17:55:39;307.60;;;281.63;;
67503;SDS011;54351;49.108;1.502;2022-10-17T17:58:41;355.50;;;324.38;;
67503;SDS011;54351;49.108;1.502;2022-10-17T18:14:24;318.33;;;290.10;;
67503;SDS011;54351;49.108;1.502;2022-10-17T18:20:31;320.08;;;289.67;;
67503;SDS011;54351;49.108;1.502;2022-10-17T18:58:04;489.17;;;447.90;;
67503;SDS011;54351;49.108;1.502;2022-10-17T19:41:53;256.40;;;231.70;;
67503;SDS011;54351;49.108;1.502;2022-10-17T19:44:30;293.58;;;264.95;;
67503;SDS011;54351;49.108;1.502;2022-10-17T20:07:33;335.52;;;305.48;;
67503;SDS011;54351;49.108;1.502;2022-10-17T20:09:59;339.55;;;308.80;;
67503;SDS011;54351;49.108;1.502;2022-10-17T20:12:25;340.83;;;308.83;;
67503;SDS011;54351;49.108;1.502;2022-10-17T20:14:52;328.05;;;297.52;;
67503;SDS011;54351;49.108;1.502;2022-10-17T20:17:18;398.73;;;364.35;;
67503;SDS011;54351;49.108;1.502;2022-10-17T20:19:44;426.80;;;389.38;;
67503;SDS011;54351;49.108;1.502;2022-10-17T20:22:11;509.50;;;466.05;;
67503;SDS011;54351;49.108;1.502;2022-10-17T20:24:37;409.45;;;374.83;;
67503;SDS011;54351;49.108;1.502;2022-10-17T20:27:03;497.38;;;455.90;;
67503;SDS011;54351;49.108;1.502;2022-10-17T20:29:29;602.45;;;549.65;;
67503;SDS011;54351;49.108;1.502;2022-10-17T20:31:55;546.50;;;499.25;;
67503;SDS011;54351;49.108;1.502;2022-10-17T20:34:21;566.00;;;516.75;;
67503;SDS011;54351;49.108;1.502;2022-10-17T20:36:48;462.75;;;423.80;;
67503;SDS011;54351;49.108;1.502;2022-10-17T20:39:14;450.27;;;410.85;;
67503;SDS011;54351;49.108;1.502;2022-10-17T20:41:41;447.00;;;408.85;;
67503;SDS011;54351;49.108;1.502;2022-10-17T20:44:07;447.30;;;408.73;;
67503;SDS011;54351;49.108;1.502;2022-10-17T20:46:34;533.17;;;486.50;;
67503;SDS011;54351;49.108;1.502;2022-10-17T20:49:01;536.33;;;490.08;;
67503;SDS011;54351;49.108;1.502;2022-10-17T20:51:27;431.00;;;393.27;;
67503;SDS011;54351;49.108;1.502;2022-10-17T20:53:53;411.75;;;375.33;;
67503;SDS011;54351;49.108;1.502;2022-10-17T20:56:26;344.98;;;314.20;;
67503;SDS011;54351;49.108;1.502;2022-10-17T20:58:53;438.77;;;401.48;;
67503;SDS011;54351;49.108;1.502;2022-10-17T21:01:19;444.73;;;406.75;;
67503;SDS011;54351;49.108;1.502;2022-10-17T21:03:45;369.17;;;337.52;;
67503;SDS011;54351;49.108;1.502;2022-10-17T21:06:12;457.73;;;418.40;;
67503;SDS011;54351;49.108;1.502;2022-10-17T21:08:39;449.25;;;412.60;;
67503;SDS011;54351;49.108;1.502;2022-10-17T21:11:06;473.48;;;433.80;;
67503;SDS011;54351;49.108;1.502;2022-10-17T21:13:32;547.53;;;501.95;;
67503;SDS011;54351;49.108;1.502;2022-10-17T21:16:08;569.17;;;520.05;;
67503;SDS011;54351;49.108;1.502;2022-10-17T21:18:34;519.03;;;476.05;;
67503;SDS011;54351;49.108;1.502;2022-10-17T21:21:11;553.60;;;506.17;;
67503;SDS011;54351;49.108;1.502;2022-10-17T21:23:38;559.83;;;512.75;;
67503;SDS011;54351;49.108;1.502;2022-10-17T21:26:04;560.63;;;512.72;;
67503;SDS011;54351;49.108;1.502;2022-10-17T21:28:32;557.50;;;509.92;;
67503;SDS011;54351;49.108;1.502;2022-10-17T21:31:06;556.80;;;508.75;;
67503;SDS011;54351;49.108;1.502;2022-10-17T21:33:32;490.73;;;450.33;;
67503;SDS011;54351;49.108;1.502;2022-10-17T21:35:58;532.88;;;488.23;;
67503;SDS011;54351;49.108;1.502;2022-10-17T21:38:24;565.28;;;515.90;;
67503;SDS011;54351;49.108;1.502;2022-10-17T21:40:50;574.78;;;524.10;;
67503;SDS011;54351;49.108;1.502;2022-10-17T21:43:16;542.70;;;495.88;;
67503;SDS011;54351;49.108;1.502;2022-10-17T21:45:42;540.13;;;493.65;;
67503;SDS011;54351;49.108;1.502;2022-10-17T21:48:08;555.65;;;506.45;;
67503;SDS011;54351;49.108;1.502;2022-10-17T21:50:34;540.85;;;494.92;;
67503;SDS011;54351;49.108;1.502;2022-10-17T21:53:00;555.50;;;506.92;;
67503;SDS011;54351;49.108;1.502;2022-10-17T21:55:26;522.72;;;477.10;;
67503;SDS011;54351;49.108;1.502;2022-10-17T21:57:52;556.00;;;507.35;;
67503;SDS011;54351;49.108;1.502;2022-10-17T22:00:18;573.05;;;522.55;;
67503;SDS011;54351;49.108;1.502;2022-10-17T22:02:44;515.13;;;469.58;;
67503;SDS011;54351;49.108;1.502;2022-10-17T22:05:10;538.38;;;491.20;;
67503;SDS011;54351;49.108;1.502;2022-10-17T22:07:36;575.50;;;523.80;;
67503;SDS011;54351;49.108;1.502;2022-10-17T22:10:04;612.22;;;556.60;;
67503;SDS011;54351;49.108;1.502;2022-10-17T22:12:30;594.75;;;541.38;;
67503;SDS011;54351;49.108;1.502;2022-10-17T22:14:56;589.33;;;535.85;;
67503;SDS011;54351;49.108;1.502;2022-10-17T22:17:22;566.30;;;514.22;;
67503;SDS011;54351;49.108;1.502;2022-10-17T22:19:48;604.55;;;550.25;;
67503;SDS011;54351;49.108;1.502;2022-10-17T22:22:14;569.78;;;520.83;;
67503;SDS011;54351;49.108;1.502;2022-10-17T22:24:40;551.38;;;503.42;;
67503;SDS011;54351;49.108;1.502;2022-10-17T22:27:06;533.58;;;487.10;;
67503;SDS011;54351;49.108;1.502;2022-10-17T22:29:34;544.60;;;497.88;;
67503;SDS011;54351;49.108;1.502;2022-10-17T22:32:00;497.52;;;455.38;;
67503;SDS011;54351;49.108;1.502;2022-10-17T22:34:26;495.67;;;453.42;;
67503;SDS011;54351;49.108;1.502;2022-10-17T22:36:52;525.30;;;480.50;;
67503;SDS011;54351;49.108;1.502;2022-10-17T22:39:18;552.70;;;504.98;;
67503;SDS011;54351;49.108;1.502;2022-10-17T22:41:44;579.58;;;528.70;;
67503;SDS011;54351;49.108;1.502;2022-10-17T22:44:11;556.40;;;507.92;;
67503;SDS011;54351;49.108;1.502;2022-10-17T22:46:37;587.50;;;535.28;;